Time;durP1;ratioP1;P1;durP2;ratioP2;P2;SDS_P1;SDS_P2;PMS_P1;PMS_P2;Temp;Humidity;BMP_temperature;BMP_pressure;BME280_temperature;BME280_humidity;BME280_pressure;Samples;Min_cycle;Max_cycle;Signal;HPM_P1;HPM_P2
2021/11/03 00:00:41;;;;;;;5.33;2.97;;;2.30;99.90;;;;;;5124371;28;20184;-79
2021/11/03 00:03:08;;;;;;;2.50;2.10;;;2.20;99.90;;;;;;5128189;28;20433;-79
2021/11/03 00:05:33;;;;;;;3.53;2.37;;;2.70;99.90;;;;;;5123895;28;20413;-79
2021/11/03 00:08:00;;;;;;;2.60;1.93;;;2.30;99.90;;;;;;5121158;28;20428;-79
2021/11/03 00:10:26;;;;;;;2.70;2.07;;;2.40;99.90;;;;;;5120965;28;20202;-79
2021/11/03 00:12:52;;;;;;;3.60;3.30;;;2.30;99.90;;;;;;5122295;28;20910;-79
2021/11/03 00:15:18;;;;;;;3.13;2.80;;;2.20;99.90;;;;;;5122401;28;20202;-79
2021/11/03 00:17:44;;;;;;;3.10;2.30;;;2.20;99.90;;;;;;5121084;28;20175;-80
2021/11/03 00:20:12;;;;;;;4.37;2.00;;;2.30;99.90;;;;;;5121200;28;20175;-79
2021/11/03 00:22:38;;;;;;;2.80;2.30;;;2.30;99.90;;;;;;5122104;28;20432;-80
2021/11/03 00:25:06;;;;;;;2.30;2.10;;;2.20;99.90;;;;;;5122026;28;20534;-79
2021/11/03 00:27:31;;;;;;;4.17;2.87;;;2.30;99.90;;;;;;5122025;28;20494;-80
2021/11/03 00:29:57;;;;;;;2.90;2.20;;;;;;;;;;5121209;28;20425;-80
2021/11/03 00:32:24;;;;;;;1.93;1.73;;;;;;;;;;5121990;28;20195;-79
2021/11/03 00:34:50;;;;;;;2.80;2.60;;;;;;;;;;5120805;28;20532;-80
2021/11/03 00:37:16;;;;;;;4.23;3.00;;;2.10;99.90;;;;;;5122162;28;20448;-80
2021/11/03 00:39:43;;;;;;;3.00;2.30;;;2.00;99.90;;;;;;5121985;28;20218;-79
2021/11/03 00:42:09;;;;;;;2.77;2.03;;;2.10;99.90;;;;;;5120693;28;20691;-79
2021/11/03 00:44:35;;;;;;;2.07;1.80;;;;;;;;;;5121667;28;20405;-80
2021/11/03 00:47:01;;;;;;;2.20;2.00;;;2.00;99.90;;;;;;5122461;28;20416;-80
2021/11/03 00:49:27;;;;;;;3.03;1.73;;;2.00;99.90;;;;;;5122251;28;20413;-79
2021/11/03 00:51:52;;;;;;;2.70;2.27;;;2.00;99.90;;;;;;5122264;28;20252;-80
2021/11/03 00:54:18;;;;;;;3.77;2.80;;;2.00;99.90;;;;;;5121864;28;20191;-79
2021/11/03 00:56:46;;;;;;;2.20;2.00;;;;;;;;;;5122461;28;20171;-79
2021/11/03 00:59:12;;;;;;;1.97;1.73;;;;;;;;;;5121692;28;20172;-80
2021/11/03 01:01:38;;;;;;;2.40;2.07;;;;;;;;;;5120953;28;20437;-80
2021/11/03 01:04:04;;;;;;;2.60;2.00;;;1.90;99.90;;;;;;5121526;28;20458;-80
2021/11/03 01:06:30;;;;;;;5.50;2.13;;;2.00;99.90;;;;;;5122111;28;20709;-79
2021/11/03 01:08:56;;;;;;;2.43;2.23;;;;;;;;;;5121542;28;20254;-79
2021/11/03 01:11:22;;;;;;;2.23;2.03;;;;;;;;;;5120520;28;20199;-80
2021/11/03 01:13:48;;;;;;;2.10;1.90;;;;;;;;;;5120795;28;20502;-80
2021/11/03 01:16:14;;;;;;;1.93;1.73;;;;;;;;;;5121695;28;20406;-80
2021/11/03 01:18:40;;;;;;;1.77;1.63;;;1.80;99.90;;;;;;5119921;28;20410;-80
2021/11/03 01:21:06;;;;;;;3.70;2.20;;;;;;;;;;5121808;28;20467;-80
2021/11/03 01:23:32;;;;;;;2.50;2.07;;;;;;;;;;5121627;28;20575;-80
2021/11/03 01:25:59;;;;;;;2.67;2.03;;;1.70;99.90;;;;;;5126124;28;20416;-79
2021/11/03 01:28:25;;;;;;;2.23;1.90;;;;;;;;;;5131840;28;20437;-80
2021/11/03 01:30:50;;;;;;;2.10;1.90;;;1.70;99.90;;;;;;5120641;28;20418;-80
2021/11/03 01:33:19;;;;;;;2.00;1.80;;;1.70;99.90;;;;;;5125231;28;20502;-80
2021/11/03 01:35:45;;;;;;;2.07;1.87;;;;;;;;;;5119613;28;20609;-81
2021/11/03 01:38:11;;;;;;;2.17;1.97;;;;;;;;;;5119447;28;20413;-80
2021/11/03 01:40:41;;;;;;;1.90;1.80;;;1.60;99.90;;;;;;5119475;28;20401;-80
2021/11/03 01:43:08;;;;;;;2.00;1.67;;;1.60;99.90;;;;;;5119394;28;20232;-80
2021/11/03 01:45:34;;;;;;;4.00;2.00;;;;;;;;;;5119306;28;20517;-80
2021/11/03 01:48:06;;;;;;;2.60;2.07;;;1.60;99.90;;;;;;5119931;28;20460;-80
2021/11/03 01:50:46;;;;;;;2.40;1.97;;;1.60;99.90;;;;;;5120419;28;20394;-80
2021/11/03 01:53:20;;;;;;;2.50;1.90;;;1.50;99.90;;;;;;5119096;28;20437;-79
2021/11/03 01:56:12;;;;;;;2.37;2.10;;;1.50;99.90;;;;;;5119316;28;20462;-80
2021/11/03 01:58:45;;;;;;;2.13;1.93;;;1.50;99.90;;;;;;5116515;27;20497;-80
2021/11/03 02:01:12;;;;;;;2.43;2.13;;;1.50;99.90;;;;;;5118902;28;20467;-80
2021/11/03 02:03:40;;;;;;;2.17;1.83;;;1.50;99.90;;;;;;5120447;28;20433;-79
2021/11/03 02:06:13;;;;;;;2.83;2.37;;;1.60;99.90;;;;;;5118937;28;20406;-80
2021/11/03 02:08:42;;;;;;;3.03;2.30;;;1.40;99.90;;;;;;5118865;28;20954;-80
2021/11/03 02:11:09;;;;;;;2.87;2.23;;;1.50;99.90;;;;;;5118966;28;20405;-80
2021/11/03 02:13:37;;;;;;;3.20;2.50;;;1.40;99.90;;;;;;5119907;28;20421;-80
2021/11/03 02:16:03;;;;;;;6.77;4.07;;;;;;;;;;5118338;28;20771;-80
2021/11/03 02:18:31;;;;;;;4.27;3.20;;;1.40;99.90;;;;;;5119324;28;20408;-79
2021/11/03 02:20:57;;;;;;;4.63;3.17;;;;;;;;;;5120126;28;20409;-80
2021/11/03 02:23:59;;;;;;;4.57;2.80;;;1.40;99.90;;;;;;5118279;28;20461;-80
2021/11/03 02:26:30;;;;;;;6.23;3.70;;;1.40;99.90;;;;;;5116873;28;20474;-80
2021/11/03 02:28:57;;;;;;;6.83;3.33;;;1.50;99.90;;;;;;5118934;28;20458;-81
2021/11/03 02:31:33;;;;;;;4.33;2.60;;;1.60;99.90;;;;;;5119976;28;20404;-80
2021/11/03 02:34:00;;;;;;;3.10;1.93;;;1.60;99.90;;;;;;5120110;28;20456;-80
2021/11/03 02:36:26;;;;;;;4.07;2.70;;;1.70;99.90;;;;;;5119407;28;20459;-80
2021/11/03 02:38:52;;;;;;;10.57;4.10;;;;;;;;;;5118290;28;20428;-79
2021/11/03 02:41:25;;;;;;;6.23;3.53;;;1.80;99.90;;;;;;5118121;28;20402;-80
2021/11/03 02:44:10;;;;;;;8.27;3.30;;;1.80;99.90;;;;;;5119792;28;20871;-80
2021/11/03 02:46:36;;;;;;;4.43;2.93;;;1.80;99.90;;;;;;5118426;28;20410;-80
2021/11/03 02:49:03;;;;;;;3.97;2.77;;;1.80;99.90;;;;;;5119807;28;20417;-80
2021/11/03 02:51:39;;;;;;;3.60;2.10;;;1.80;99.90;;;;;;5118776;28;20187;-80
2021/11/03 02:54:10;;;;;;;2.67;2.20;;;1.70;99.90;;;;;;5119311;28;20520;-80
2021/11/03 02:56:40;;;;;;;2.23;1.97;;;1.70;99.90;;;;;;5118830;28;20440;-80
2021/11/03 02:59:07;;;;;;;3.80;2.03;;;1.80;99.90;;;;;;5118685;28;20417;-80
2021/11/03 03:01:41;;;;;;;2.87;2.00;;;1.60;99.90;;;;;;5119662;28;20456;-80
2021/11/03 03:04:12;;;;;;;1.50;1.40;;;1.60;99.90;;;;;;5118315;28;20417;-80
2021/11/03 03:06:38;;;;;;;1.50;1.40;;;3.30;99.90;;;;;;5119738;28;20789;-80
2021/11/03 03:09:05;;;;;;;2.13;1.93;;;1.50;99.90;;;;;;5118667;28;20427;-79
2021/11/03 03:11:33;;;;;;;1.87;1.77;;;1.50;99.90;;;;;;5118767;28;20214;-80
2021/11/03 03:13:59;;;;;;;4.00;1.87;;;1.40;99.90;;;;;;5118595;28;20863;-80
2021/11/03 03:16:24;;;;;;;3.43;2.27;;;1.40;99.90;;;;;;5119945;28;20473;-80
2021/11/03 03:18:50;;;;;;;7.87;4.57;;;1.40;99.90;;;;;;5120182;28;20175;-79
2021/11/03 03:21:18;;;;;;;3.33;2.70;;;1.40;99.90;;;;;;5121237;28;20178;-80
2021/11/03 03:23:44;;;;;;;2.17;1.97;;;1.40;99.90;;;;;;5126665;28;20406;-79
2021/11/03 03:26:12;;;;;;;3.70;1.77;;;3.70;99.90;;;;;;5126340;28;20410;-80
2021/11/03 03:28:38;;;;;;;3.57;2.47;;;;;;;;;;5125036;28;20997;-80
2021/11/03 03:31:06;;;;;;;2.50;2.07;;;1.30;99.90;;;;;;5124087;28;20483;-80
2021/11/03 03:33:34;;;;;;;2.33;2.10;;;1.30;99.90;;;;;;5121533;28;20461;-79
2021/11/03 03:36:00;;;;;;;3.50;2.20;;;;;;;;;;5122743;28;20443;-79
2021/11/03 03:38:26;;;;;;;3.57;2.30;;;;;;;;;;5121437;28;20406;-80
2021/11/03 03:40:52;;;;;;;2.60;2.40;;;;;;;;;;5121080;28;20435;-80
2021/11/03 03:43:18;;;;;;;5.37;2.47;;;;;;;;;;5123382;28;20911;-80
2021/11/03 03:45:44;;;;;;;2.80;2.50;;;;;;;;;;5121186;28;20410;-80
2021/11/03 03:48:10;;;;;;;5.07;2.87;;;;;;;;;;5122368;28;20416;-80
2021/11/03 03:50:37;;;;;;;2.80;2.60;;;1.20;99.90;;;;;;5122578;28;20417;-80
2021/11/03 03:53:03;;;;;;;6.30;2.40;;;;;;;;;;5121345;28;20440;-79
2021/11/03 03:55:29;;;;;;;4.97;2.30;;;;;;;;;;5122207;28;20467;-80
2021/11/03 03:57:56;;;;;;;2.80;2.47;;;;;;;;;;5121482;28;20413;-80
2021/11/03 04:00:23;;;;;;;3.17;2.20;;;1.00;99.90;;;;;;5121363;28;20409;-79
2021/11/03 04:02:51;;;;;;;2.80;2.50;;;0.80;99.90;;;;;;5121781;28;20437;-79
2021/11/03 04:05:18;;;;;;;2.33;2.13;;;;;;;;;;5120908;28;20983;-80
2021/11/03 04:07:44;;;;;;;4.47;2.67;;;;;;;;;;5120918;28;20413;-79
2021/11/03 04:10:10;;;;;;;3.87;2.37;;;0.90;99.90;;;;;;5122935;28;20496;-79
2021/11/03 04:12:36;;;;;;;2.37;2.00;;;;;;;;;;5120903;28;20298;-80
2021/11/03 04:15:04;;;;;;;2.60;1.93;;;0.60;99.90;;;;;;5120641;28;20449;-80
2021/11/03 04:17:30;;;;;;;2.87;2.17;;;0.70;99.90;;;;;;5121080;28;20409;-79
2021/11/03 04:19:55;;;;;;;4.87;2.43;;;0.70;99.90;;;;;;5122103;28;20452;-80
2021/11/03 04:22:21;;;;;;;4.97;1.93;;;;;;;;;;5121816;28;20203;-80
2021/11/03 04:24:47;;;;;;;3.27;2.50;;;;;;;;;;5120511;28;20178;-80
2021/11/03 04:27:13;;;;;;;2.77;2.20;;;;;;;;;;5121135;28;20417;-79
2021/11/03 04:29:39;;;;;;;3.40;2.60;;;0.80;99.90;;;;;;5120477;28;20409;-79
2021/11/03 04:32:05;;;;;;;2.77;2.30;;;0.80;99.90;;;;;;5120880;28;20776;-80
2021/11/03 04:34:31;;;;;;;2.43;2.23;;;;;;;;;;5121282;28;20211;-79
2021/11/03 04:36:57;;;;;;;3.53;2.33;;;;;;;;;;5121864;28;20183;-79
2021/11/03 04:39:23;;;;;;;2.27;2.07;;;0.90;99.90;;;;;;5122311;28;20406;-80
2021/11/03 04:41:49;;;;;;;3.67;2.67;;;;;;;;;;5121617;28;20241;-80
2021/11/03 04:44:15;;;;;;;2.43;2.13;;;;;;;;;;5121664;28;20228;-80
2021/11/03 04:46:41;;;;;;;4.00;2.70;;;0.90;99.90;;;;;;5119912;28;20448;-80
2021/11/03 04:49:07;;;;;;;5.97;2.50;;;0.90;99.90;;;;;;5119276;28;20413;-80
2021/11/03 04:51:33;;;;;;;3.53;2.63;;;;;;;;;;5120742;28;20445;-80
2021/11/03 04:53:59;;;;;;;2.87;2.33;;;;;;;;;;5120586;28;20199;-80
2021/11/03 04:56:26;;;;;;;3.63;2.13;;;;;;;;;;5120270;28;20496;-80
2021/11/03 04:58:52;;;;;;;7.17;2.70;;;;;;;;;;5121765;28;20430;-79
2021/11/03 05:01:23;;;;;;;3.37;2.20;;;1.00;99.90;;;;;;5119996;28;20405;-80
2021/11/03 05:03:50;;;;;;;3.13;2.33;;;0.90;99.90;;;;;;5120818;28;20462;-80
2021/11/03 05:06:19;;;;;;;3.23;2.63;;;1.00;99.90;;;;;;5120504;28;20496;-80
2021/11/03 05:08:45;;;;;;;5.93;2.27;;;0.80;99.90;;;;;;5118783;28;20489;-80
2021/11/03 05:11:10;;;;;;;4.50;2.93;;;1.00;99.90;;;;;;5120262;28;20870;-80
2021/11/03 05:13:36;;;;;;;5.57;2.40;;;0.90;99.90;;;;;;5118643;28;20199;-80
2021/11/03 05:16:03;;;;;;;3.00;2.50;;;;;;;;;;5120244;28;20254;-80
2021/11/03 05:18:29;;;;;;;2.93;2.27;;;;;;;;;;5118399;28;20408;-80
2021/11/03 05:20:55;;;;;;;4.43;2.40;;;;;;;;;;5118602;28;20404;-80
2021/11/03 05:23:24;;;;;;;2.80;2.60;;;;;;;;;;5118495;28;20425;-80
2021/11/03 05:25:51;;;;;;;5.57;2.33;;;;;;;;;;5118305;28;20172;-80
2021/11/03 05:28:16;;;;;;;3.37;2.70;;;1.00;99.90;;;;;;5120179;28;20480;-80
2021/11/03 05:30:43;;;;;;;2.33;2.10;;;;;;;;;;5119790;28;20428;-80
2021/11/03 05:33:09;;;;;;;2.67;2.07;;;;;;;;;;5118425;28;20211;-80
2021/11/03 05:35:35;;;;;;;4.10;3.23;;;;;;;;;;5118260;28;20465;-80
2021/11/03 05:38:01;;;;;;;3.60;2.47;;;;;;;;;;5119988;28;20405;-80
2021/11/03 05:40:28;;;;;;;2.73;2.40;;;1.00;99.90;;;;;;5118706;28;20765;-80
2021/11/03 05:42:54;;;;;;;7.93;2.87;;;;;;;;;;5119874;28;20433;-80
2021/11/03 05:45:21;;;;;;;3.93;2.73;;;;;;;;;;5119192;28;20412;-80
2021/11/03 05:47:47;;;;;;;6.57;2.73;;;1.00;99.90;;;;;;5118782;28;20422;-80
2021/11/03 05:50:20;;;;;;;6.87;3.00;;;1.00;99.90;;;;;;5120300;28;20406;-80
2021/11/03 05:52:46;;;;;;;8.37;2.73;;;1.10;99.90;;;;;;5120300;28;20851;-79
2021/11/03 05:55:13;;;;;;;5.37;3.27;;;1.00;99.90;;;;;;5121667;28;20455;-79
2021/11/03 05:57:39;;;;;;;3.60;2.53;;;1.10;99.90;;;;;;5120244;28;20175;-80
2021/11/03 06:00:30;;;;;;;3.00;2.47;;;1.10;99.90;;;;;;5117778;28;20410;-79
2021/11/03 06:02:55;;;;;;;9.17;3.10;;;1.10;99.90;;;;;;5116281;28;20433;-80
2021/11/03 06:05:22;;;;;;;5.13;3.33;;;1.10;99.90;;;;;;5117425;28;20989;-79
2021/11/03 06:07:57;;;;;;;4.27;3.20;;;1.20;99.90;;;;;;5117090;28;20206;-80
2021/11/03 06:10:30;;;;;;;7.03;3.33;;;1.20;99.90;;;;;;5118728;28;20415;-80
2021/11/03 06:12:57;;;;;;;9.37;6.07;;;1.10;99.90;;;;;;5117426;28;20791;-80
2021/11/03 06:15:23;;;;;;;6.03;4.63;;;1.20;99.90;;;;;;5117557;28;20456;-79
2021/11/03 06:17:50;;;;;;;7.57;4.90;;;1.20;99.90;;;;;;5118503;28;20409;-80
2021/11/03 06:20:16;;;;;;;8.27;5.53;;;;;;;;;;5121407;28;20168;-79
2021/11/03 06:22:42;;;;;;;9.90;5.30;;;1.20;99.90;;;;;;5124244;28;20485;-79
2021/11/03 06:25:11;;;;;;;6.70;4.60;;;1.20;99.90;;;;;;5119737;28;20527;-79
2021/11/03 06:27:37;;;;;;;6.13;4.07;;;1.20;99.90;;;;;;5118057;28;20262;-79
2021/11/03 06:30:05;;;;;;;7.73;5.20;;;1.20;99.90;;;;;;5119228;28;20445;-79
2021/11/03 06:32:31;;;;;;;9.17;5.63;;;1.30;99.90;;;;;;5119658;28;20251;-81
2021/11/03 06:34:56;;;;;;;11.23;5.47;;;1.30;99.90;;;;;;5117503;28;20882;-79
2021/11/03 06:37:22;;;;;;;8.97;4.40;;;1.40;99.90;;;;;;5118516;28;20229;-80
2021/11/03 06:39:48;;;;;;;6.03;4.03;;;;;;;;;;5117469;28;20637;-79
2021/11/03 06:42:14;;;;;;;10.10;5.13;;;1.50;99.90;;;;;;5118525;28;20194;-80
2021/11/03 06:44:39;;;;;;;5.47;3.73;;;1.40;99.90;;;;;;5118469;28;20175;-79
2021/11/03 06:47:05;;;;;;;6.93;4.10;;;1.40;99.90;;;;;;5117496;28;20281;-79
2021/11/03 06:49:31;;;;;;;9.00;3.97;;;1.50;99.90;;;;;;5117674;28;20206;-79
2021/11/03 06:51:56;;;;;;;9.33;4.87;;;1.50;99.90;;;;;;5118914;28;20290;-79
2021/11/03 06:54:22;;;;;;;5.00;3.97;;;2.60;99.90;;;;;;5117281;28;20206;-79
2021/11/03 06:56:52;;;;;;;6.87;4.77;;;1.60;99.90;;;;;;5116545;28;20171;-79
2021/11/03 06:59:18;;;;;;;7.73;3.63;;;2.30;99.90;;;;;;5118576;28;20184;-80
2021/11/03 07:01:45;;;;;;;6.23;3.73;;;1.90;99.90;;;;;;5121135;28;20429;-79
2021/11/03 07:04:12;;;;;;;8.83;4.13;;;;;;;;;;5121201;28;20417;-80
2021/11/03 07:06:37;;;;;;;19.87;4.10;;;2.00;99.90;;;;;;5121964;28;20409;-80
2021/11/03 07:09:03;;;;;;;13.87;4.10;;;2.10;99.90;;;;;;5121863;28;20405;-79
2021/11/03 07:11:29;;;;;;;5.07;3.83;;;2.20;99.90;;;;;;5122040;28;20206;-79
2021/11/03 07:13:56;;;;;;;6.60;4.53;;;2.20;99.90;;;;;;5121209;28;20812;-80
2021/11/03 07:16:23;;;;;;;7.60;4.90;;;3.10;99.90;;;;;;5121897;28;20180;-79
2021/11/03 07:18:49;;;;;;;8.10;4.60;;;2.20;99.90;;;;;;5119609;28;20470;-79
2021/11/03 07:21:15;;;;;;;5.60;3.53;;;2.10;99.90;;;;;;5119938;28;20777;-79
2021/11/03 07:23:41;;;;;;;8.00;3.50;;;2.20;99.90;;;;;;5120721;28;20199;-79
2021/11/03 07:26:07;;;;;;;4.47;3.53;;;2.30;99.90;;;;;;5119497;28;20468;-79
2021/11/03 07:28:36;;;;;;;8.17;3.47;;;2.30;99.90;;;;;;5129652;28;20232;-79
2021/11/03 07:31:03;;;;;;;7.87;5.20;;;2.40;99.90;;;;;;5134925;28;20155;-79
2021/11/03 07:33:29;;;;;;;10.27;6.93;;;2.40;99.90;;;;;;5132661;28;20472;-79
2021/11/03 07:35:54;;;;;;;5.27;3.40;;;2.40;99.90;;;;;;5119708;28;20427;-79
2021/11/03 07:38:20;;;;;;;7.73;3.63;;;2.50;99.90;;;;;;5118097;28;20168;-79
2021/11/03 07:40:53;;;;;;;8.87;4.10;;;2.50;99.90;;;;;;5117259;28;20191;-79
2021/11/03 07:43:19;;;;;;;4.07;3.10;;;2.70;99.90;;;;;;5117759;28;20422;-79
2021/11/03 07:45:47;;;;;;;4.33;2.87;;;2.70;99.90;;;;;;5117741;28;20401;-80
2021/11/03 07:48:13;;;;;;;15.43;7.10;;;2.80;99.90;;;;;;5117467;28;20413;-79
2021/11/03 07:50:43;;;;;;;61.60;25.90;;;2.70;99.90;;;;;;5116952;28;20436;-79
2021/11/03 07:53:10;;;;;;;41.93;19.13;;;2.70;99.90;;;;;;5118036;28;20425;-79
2021/11/03 07:55:37;;;;;;;40.20;18.50;;;2.60;99.90;;;;;;5117588;28;20456;-79
2021/11/03 07:58:03;;;;;;;23.43;12.43;;;2.60;99.90;;;;;;5117853;28;20960;-79
2021/11/03 08:00:33;;;;;;;20.80;11.67;;;3.70;99.90;;;;;;5116463;28;20926;-79
2021/11/03 08:02:59;;;;;;;7.60;5.13;;;2.50;99.90;;;;;;5117778;28;20445;-79
2021/11/03 08:05:28;;;;;;;6.70;4.70;;;2.60;99.90;;;;;;5118452;28;20416;-79
2021/11/03 08:07:59;;;;;;;5.50;4.77;;;2.60;99.90;;;;;;5120029;28;20448;-79
2021/11/03 08:10:25;;;;;;;8.30;5.37;;;2.70;99.90;;;;;;5122263;28;20421;-79
2021/11/03 08:12:54;;;;;;;6.00;4.13;;;2.70;99.90;;;;;;5121957;28;20445;-79
2021/11/03 08:15:20;;;;;;;7.47;5.37;;;2.80;99.90;;;;;;5121320;28;20544;-79
2021/11/03 08:17:46;;;;;;;8.53;3.73;;;3.00;99.90;;;;;;5122553;28;20440;-79
2021/11/03 08:20:16;;;;;;;9.00;4.20;;;3.10;99.90;;;;;;5122887;28;20184;-79
2021/11/03 08:22:42;;;;;;;4.37;3.10;;;3.30;99.90;;;;;;5121855;28;20440;-79
2021/11/03 08:25:08;;;;;;;6.17;2.93;;;3.50;99.90;;;;;;5122557;28;20414;-78
2021/11/03 08:27:35;;;;;;;3.40;2.57;;;3.60;99.90;;;;;;5119351;28;20187;-79
2021/11/03 08:30:04;;;;;;;4.63;3.30;;;3.70;99.90;;;;;;5121774;28;20414;-79
2021/11/03 08:32:33;;;;;;;7.60;4.07;;;3.80;99.90;;;;;;5120768;28;20922;-79
2021/11/03 08:34:59;;;;;;;5.33;2.80;;;3.90;99.90;;;;;;5119488;28;20532;-79
2021/11/03 08:37:28;;;;;;;3.83;2.43;;;4.00;99.90;;;;;;5119948;28;20740;-79
2021/11/03 08:39:55;;;;;;;2.90;2.47;;;4.10;99.90;;;;;;5121101;28;20414;-79
2021/11/03 08:42:22;;;;;;;3.10;2.23;;;4.30;99.90;;;;;;5120992;28;20248;-79
2021/11/03 08:44:50;;;;;;;6.03;3.93;;;4.10;99.90;;;;;;5119167;28;20432;-79
2021/11/03 08:47:16;;;;;;;3.70;3.37;;;4.10;99.90;;;;;;5119482;28;20421;-79
2021/11/03 08:49:42;;;;;;;4.63;3.00;;;4.00;99.90;;;;;;5119777;28;20982;-79
2021/11/03 08:52:08;;;;;;;6.53;3.47;;;3.80;99.90;;;;;;5119047;28;20290;-80
2021/11/03 08:54:38;;;;;;;5.87;3.20;;;3.70;99.90;;;;;;5120420;28;20660;-79
2021/11/03 08:57:04;;;;;;;7.57;3.47;;;3.70;99.90;;;;;;5119460;28;20420;-79
2021/11/03 08:59:29;;;;;;;8.80;3.00;;;3.90;99.90;;;;;;5120928;28;20439;-79
2021/11/03 09:01:55;;;;;;;4.90;3.33;;;4.00;99.90;;;;;;5119322;28;20196;-79
2021/11/03 09:04:21;;;;;;;5.57;3.40;;;4.10;99.90;;;;;;5119951;28;20274;-79
2021/11/03 09:06:47;;;;;;;10.83;3.67;;;4.20;99.90;;;;;;5119747;28;20183;-79
2021/11/03 09:09:12;;;;;;;7.93;3.27;;;4.40;99.90;;;;;;5120883;28;20417;-79
2021/11/03 09:11:38;;;;;;;6.13;3.13;;;4.50;99.90;;;;;;5119459;28;20633;-80
2021/11/03 09:14:04;;;;;;;4.73;2.83;;;4.40;99.90;;;;;;5120787;28;20206;-79
2021/11/03 09:16:30;;;;;;;6.60;3.50;;;4.40;99.90;;;;;;5118925;28;20218;-79
2021/11/03 09:18:56;;;;;;;8.40;4.37;;;4.50;99.90;;;;;;5119106;28;20182;-79
2021/11/03 09:21:22;;;;;;;7.10;3.97;;;4.50;99.90;;;;;;5120454;28;20434;-80
2021/11/03 09:23:49;;;;;;;14.67;4.03;;;4.60;99.90;;;;;;5118547;28;20171;-79
2021/11/03 09:26:16;;;;;;;11.90;4.47;;;4.80;99.90;;;;;;5120882;28;20694;-80
2021/11/03 09:28:42;;;;;;;7.07;3.17;;;4.80;99.90;;;;;;5120665;28;20195;-79
2021/11/03 09:31:08;;;;;;;8.20;4.37;;;4.80;99.90;;;;;;5122026;28;20441;-79
2021/11/03 09:33:36;;;;;;;4.40;3.60;;;4.80;99.90;;;;;;5122975;28;20278;-79
2021/11/03 09:36:07;;;;;;;9.77;5.67;;;4.90;99.90;;;;;;5123329;28;20180;-79
2021/11/03 09:38:34;;;;;;;7.23;3.87;;;4.90;99.90;;;;;;5121259;28;20513;-80
2021/11/03 09:41:12;;;;;;;6.63;4.23;;;5.00;99.90;;;;;;5118645;28;20422;-79
2021/11/03 09:43:45;;;;;;;4.80;3.80;;;4.90;99.90;;;;;;5117624;28;20199;-79
2021/11/03 09:46:34;;;;;;;6.87;3.43;;;4.90;99.90;;;;;;5118586;28;20172;-80
2021/11/03 09:49:10;;;;;;;7.20;4.50;;;4.90;99.90;;;;;;5119516;28;20160;-79
2021/11/03 09:51:37;;;;;;;7.97;4.57;;;5.00;99.90;;;;;;5117838;28;20420;-80
2021/11/03 09:54:07;;;;;;;10.13;4.60;;;4.90;99.90;;;;;;5119833;28;20223;-79
2021/11/03 09:56:40;;;;;;;7.33;4.53;;;4.90;99.90;;;;;;5118176;28;20175;-79
2021/11/03 09:59:29;;;;;;;9.50;4.63;;;5.00;99.90;;;;;;5119177;28;20179;-79
2021/11/03 10:02:03;;;;;;;10.23;4.57;;;5.10;99.90;;;;;;5119622;28;20187;-79
2021/11/03 10:05:05;;;;;;;6.90;3.70;;;5.20;99.90;;;;;;5119612;28;20168;-79
2021/11/03 10:07:47;;;;;;;4.43;3.03;;;5.30;99.90;;;;;;5017775;28;20684;-79
2021/11/03 10:10:33;;;;;;;6.03;3.83;;;5.30;99.90;;;;;;5107214;28;20191;-79
2021/11/03 10:13:01;;;;;;;6.40;3.43;;;5.40;99.90;;;;;;5117869;28;20208;-80
2021/11/03 10:15:29;;;;;;;7.27;3.50;;;5.50;99.90;;;;;;5119256;28;20211;-79
2021/11/03 10:18:15;;;;;;;7.30;3.80;;;5.50;99.90;;;;;;5119946;28;20489;-79
2021/11/03 10:20:58;;;;;;;3.07;2.60;;;5.50;99.90;;;;;;5119723;28;20155;-79
2021/11/03 10:23:28;;;;;;;8.57;3.73;;;5.60;99.90;;;;;;5119416;28;20930;-79
2021/11/03 10:26:10;;;;;;;7.30;3.40;;;5.60;99.90;;;;;;5119889;28;20399;-80
2021/11/03 10:28:42;;;;;;;5.23;2.77;;;5.60;99.90;;;;;;5119678;28;20217;-80
2021/11/03 10:31:50;;;;;;;4.73;2.77;;;5.60;99.90;;;;;;5118033;28;20422;-79
2021/11/03 10:34:27;;;;;;;3.97;3.00;;;5.70;99.90;;;;;;5105456;28;20223;-80
2021/11/03 10:37:21;;;;;;;5.43;3.10;;;5.60;99.90;;;;;;5118031;28;20446;-80
2021/11/03 10:40:04;;;;;;;6.83;3.47;;;5.70;99.90;;;;;;5119815;28;20160;-80
2021/11/03 10:42:52;;;;;;;4.10;3.23;;;5.70;99.90;;;;;;5118130;28;20215;-80
2021/11/03 10:45:38;;;;;;;5.70;4.03;;;5.70;99.90;;;;;;5119855;28;20653;-80
2021/11/03 10:48:07;;;;;;;5.87;3.83;;;5.70;99.90;;;;;;5120948;28;20395;-80
2021/11/03 10:50:55;;;;;;;5.00;3.60;;;5.80;99.90;;;;;;5120294;28;20179;-79
2021/11/03 10:53:27;;;;;;;6.67;3.53;;;5.80;99.90;;;;;;5120495;28;20199;-79
2021/11/03 10:56:14;;;;;;;4.77;3.60;;;5.80;99.90;;;;;;5118907;28;20353;-80
2021/11/03 10:58:49;;;;;;;5.40;3.73;;;5.80;99.90;;;;;;5118230;28;20171;-80
2021/11/03 11:01:30;;;;;;;4.13;3.20;;;5.80;99.90;;;;;;5118484;28;20174;-80
2021/11/03 11:04:11;;;;;;;6.60;3.63;;;5.90;99.90;;;;;;5119438;28;20549;-80
2021/11/03 11:06:52;;;;;;;4.97;3.50;;;6.00;99.90;;;;;;5119733;28;20204;-80
2021/11/03 11:09:39;;;;;;;6.30;3.40;;;6.00;99.90;;;;;;5120378;28;20488;-80
2021/11/03 11:12:38;;;;;;;5.00;2.83;;;6.10;99.90;;;;;;5118599;28;20195;-80
2021/11/03 11:15:14;;;;;;;6.70;3.83;;;6.10;99.90;;;;;;5118131;28;20563;-79
2021/11/03 11:17:59;;;;;;;8.87;3.10;;;6.30;99.90;;;;;;5118660;28;20412;-81
2021/11/03 11:20:41;;;;;;;9.87;4.40;;;6.40;99.90;;;;;;5118942;28;20397;-80
2021/11/03 11:23:09;;;;;;;8.27;3.37;;;6.80;99.90;;;;;;5118711;28;20240;-80
2021/11/03 11:25:58;;;;;;;10.83;3.60;;;7.30;99.90;;;;;;5118704;28;20175;-80
2021/11/03 11:28:45;;;;;;;11.23;8.20;;;7.70;99.90;;;;;;5117639;28;20160;-81
2021/11/03 11:31:38;;;;;;;19.67;17.20;;;8.10;99.90;;;;;;5117452;28;20156;-80
2021/11/03 11:34:12;;;;;;;29.50;19.20;;;8.30;99.90;;;;;;5120242;28;20207;-79
2021/11/03 11:36:48;;;;;;;12.57;9.23;;;8.30;99.90;;;;;;5122815;28;20164;-79
2021/11/03 11:39:41;;;;;;;8.33;5.20;;;8.20;99.90;;;;;;5123153;28;20215;-80
2021/11/03 11:42:13;;;;;;;11.43;5.77;;;8.10;99.90;;;;;;5121761;28;20734;-80
2021/11/03 11:45:23;;;;;;;19.90;10.00;;;8.00;99.90;;;;;;5125865;28;20625;-79
2021/11/03 11:47:56;;;;;;;7.03;3.87;;;7.80;99.90;;;;;;5110914;28;20179;-81
2021/11/03 11:50:22;;;;;;;7.33;3.37;;;7.70;99.90;;;;;;5126788;28;20176;-80
2021/11/03 11:52:48;;;;;;;6.40;4.13;;;7.60;99.90;;;;;;5126505;28;20263;-79
2021/11/03 11:55:14;;;;;;;6.27;4.57;;;7.50;99.90;;;;;;5125120;28;20207;-81
2021/11/03 11:58:03;;;;;;;6.00;4.50;;;7.60;99.90;;;;;;5123819;28;20160;-79
2021/11/03 12:00:28;;;;;;;4.77;3.40;;;7.50;99.90;;;;;;5123447;28;20197;-80
2021/11/03 12:03:03;;;;;;;7.03;4.07;;;7.50;99.90;;;;;;5122749;28;20666;-79
2021/11/03 12:05:45;;;;;;;5.00;2.97;;;7.80;99.90;;;;;;5122790;28;20178;-79
2021/11/03 12:08:13;;;;;;;6.63;5.60;;;8.00;99.90;;;;;;5124161;28;20158;-79
2021/11/03 12:10:43;;;;;;;14.67;8.23;;;8.10;99.90;;;;;;5123440;28;20175;-80
2021/11/03 12:13:09;;;;;;;36.53;20.63;;;8.10;99.90;;;;;;5123287;28;20683;-80
2021/11/03 12:15:50;;;;;;;13.83;7.43;;;8.20;99.90;;;;;;5121780;28;20203;-80
2021/11/03 12:18:21;;;;;;;6.17;4.33;;;8.20;99.90;;;;;;5122955;28;20224;-80
2021/11/03 12:20:58;;;;;;;7.47;4.50;;;8.00;99.90;;;;;;5123160;28;20169;-80
2021/11/03 12:23:56;;;;;;;6.90;3.97;;;8.00;99.90;;;;;;5122247;28;20192;-80
2021/11/03 12:26:25;;;;;;;3.73;3.17;;;8.20;99.90;;;;;;5117191;28;20192;-80
2021/11/03 12:28:56;;;;;;;3.90;3.37;;;8.40;99.90;;;;;;5121761;28;20179;-80
2021/11/03 12:31:52;;;;;;;11.17;4.90;;;8.60;99.90;;;;;;5121619;28;20187;-79
2021/11/03 12:34:31;;;;;;;11.07;4.40;;;8.70;99.90;;;;;;5121726;28;20207;-81
2021/11/03 12:37:05;;;;;;;5.87;2.87;;;8.60;99.90;;;;;;5123495;28;20240;-80
2021/11/03 12:39:31;;;;;;;5.17;3.40;;;8.60;99.90;;;;;;5122871;28;20155;-80
2021/11/03 12:42:20;;;;;;;10.80;6.27;;;8.50;99.90;;;;;;5122847;28;20218;-80
2021/11/03 12:45:10;;;;;;;9.63;5.27;;;8.50;99.90;;;;;;5122810;28;20180;-80
2021/11/03 12:47:48;;;;;;;4.60;3.17;;;8.70;99.90;;;;;;5122842;28;20156;-79
2021/11/03 12:50:38;;;;;;;4.10;3.30;;;8.70;99.90;;;;;;5121759;28;20197;-79
2021/11/03 12:53:17;;;;;;;4.30;2.97;;;8.80;99.90;;;;;;5121637;28;20755;-80
2021/11/03 12:55:53;;;;;;;7.93;5.10;;;8.90;99.90;;;;;;5121603;28;20673;-80
2021/11/03 12:58:41;;;;;;;7.73;4.43;;;8.80;99.90;;;;;;5123417;28;20178;-80
2021/11/03 13:01:26;;;;;;;5.77;4.00;;;8.70;99.90;;;;;;5122717;28;20178;-80
2021/11/03 13:03:56;;;;;;;8.40;5.03;;;8.60;99.90;;;;;;5121857;28;20179;-80
2021/11/03 13:06:32;;;;;;;10.83;7.00;;;8.50;99.90;;;;;;5122934;28;20541;-80
2021/11/03 13:08:58;;;;;;;13.73;5.80;;;8.50;99.90;;;;;;5121355;28;20167;-80
2021/11/03 13:11:33;;;;;;;14.90;8.07;;;8.30;99.90;;;;;;5121156;28;20179;-80
2021/11/03 13:14:05;;;;;;;6.63;3.97;;;8.20;99.90;;;;;;5123030;28;20246;-80
2021/11/03 13:16:39;;;;;;;9.53;5.17;;;8.00;99.90;;;;;;5122678;28;20180;-80
2021/11/03 13:19:17;;;;;;;15.37;8.23;;;7.80;99.90;;;;;;5122885;28;20171;-80
2021/11/03 13:21:44;;;;;;;11.97;7.03;;;7.80;99.90;;;;;;5121988;28;20191;-80
2021/11/03 13:24:24;;;;;;;21.27;9.67;;;7.80;99.90;;;;;;5125528;28;20243;-81
2021/11/03 13:26:53;;;;;;;33.07;13.13;;;7.80;99.90;;;;;;5125692;28;20168;-81
2021/11/03 13:29:28;;;;;;;4.93;3.70;;;7.80;99.90;;;;;;5123720;28;20168;-80